createdAt,value
2023-04-28T00:00:08.343Z,9.418232
2023-04-28T00:01:08.273Z,9.418174
2023-04-28T00:02:08.274Z,9.418237
2023-04-28T00:03:08.379Z,9.418127
2023-04-28T00:04:08.639Z,9.418231
2023-04-28T00:05:08.266Z,9.418231
2023-04-28T00:06:08.227Z,9.418213
2023-04-28T00:07:08.223Z,9.418238
2023-04-28T00:08:08.217Z,9.418246
2023-04-28T00:09:08.198Z,9.418293
2023-04-28T00:10:09.226Z,9.418299
2023-04-28T00:11:08.195Z,9.418251
2023-04-28T00:12:08.199Z,9.418283
2023-04-28T00:13:08.190Z,9.418231
2023-04-28T00:14:08.182Z,9.418223
2023-04-28T00:15:08.180Z,9.418249
2023-04-28T00:16:08.171Z,9.418335
2023-04-28T00:17:08.195Z,9.418301
2023-04-28T00:18:08.191Z,9.418288
2023-04-28T00:19:08.324Z,9.418238
2023-04-28T00:20:08.145Z,9.418199
2023-04-28T00:21:08.138Z,9.418241
2023-04-28T00:22:08.142Z,9.418268
2023-04-28T00:23:08.120Z,9.418299
2023-04-28T00:24:08.117Z,9.418288
2023-04-28T00:25:09.131Z,9.418283
2023-04-28T00:26:08.109Z,9.418209
2023-04-28T00:27:08.096Z,9.418281
2023-04-28T00:28:08.081Z,9.418225
2023-04-28T00:29:08.065Z,9.418334
2023-04-28T00:30:08.097Z,9.418313
2023-04-28T00:31:08.052Z,9.418277
2023-04-28T00:32:08.162Z,9.418226
2023-04-28T00:33:08.078Z,9.418246
2023-04-28T00:34:08.034Z,9.418276
2023-04-28T00:35:08.049Z,9.418228
2023-04-28T00:36:08.017Z,9.418242
2023-04-28T00:37:08.012Z,9.418253
2023-04-28T00:38:08.025Z,9.418242
2023-04-28T00:39:08.001Z,9.418270
2023-04-28T00:40:08.010Z,9.418247
2023-04-28T00:41:08.000Z,9.418272
2023-04-28T00:42:08.002Z,9.418280
2023-04-28T00:43:07.968Z,9.418282
2023-04-28T00:44:07.961Z,9.418275
2023-04-28T00:45:07.972Z,9.418236
2023-04-28T00:46:08.035Z,9.418315
2023-04-28T00:47:07.970Z,9.418326
2023-04-28T00:48:08.016Z,9.418240
2023-04-28T00:49:07.929Z,9.418248
2023-04-28T00:50:07.933Z,9.418231
2023-04-28T00:51:07.928Z,9.418305
2023-04-28T00:52:07.922Z,9.418310
2023-04-28T00:53:07.922Z,9.418298
2023-04-28T00:54:07.899Z,9.418262
2023-04-28T00:55:07.890Z,9.418303
2023-04-28T00:56:07.880Z,9.418295
2023-04-28T00:57:07.885Z,9.418218
2023-04-28T00:58:07.870Z,9.418327
2023-04-28T00:59:07.860Z,9.418346
2023-04-28T01:00:07.868Z,9.418315
2023-04-28T01:01:07.894Z,9.418344
2023-04-28T01:02:07.972Z,9.418236
2023-04-28T01:03:08.153Z,9.418303
2023-04-28T01:04:08.257Z,9.418256
2023-04-28T01:05:07.827Z,9.418326
2023-04-28T01:06:07.825Z,9.418260
2023-04-28T01:07:07.801Z,9.418253
2023-04-28T01:08:07.802Z,9.418278
2023-04-28T01:09:07.798Z,9.418281
2023-04-28T01:10:07.797Z,9.418267
2023-04-28T01:11:07.773Z,9.418359
2023-04-28T01:12:07.770Z,9.418322
2023-04-28T01:13:07.763Z,9.418071
2023-04-28T01:14:07.758Z,9.418225
2023-04-28T01:15:07.849Z,9.418254
2023-04-28T01:16:07.881Z,9.418192
2023-04-28T01:17:07.739Z,9.418151
2023-04-28T01:18:07.767Z,9.418173
2023-04-28T01:19:07.725Z,9.418169
2023-04-28T01:20:07.727Z,9.418230
2023-04-28T01:21:07.723Z,9.418240
2023-04-28T01:22:07.708Z,9.418174
2023-04-28T01:23:07.687Z,9.418303
2023-04-28T01:24:07.692Z,9.418226
2023-04-28T01:25:07.706Z,9.418176
2023-04-28T01:26:08.674Z,9.418172
2023-04-28T01:27:07.691Z,9.418257
2023-04-28T01:28:07.660Z,9.418268
2023-04-28T01:29:07.657Z,9.418326
2023-04-28T01:30:07.669Z,9.418265
2023-04-28T01:31:07.706Z,9.418159
2023-04-28T01:32:07.665Z,9.418133
2023-04-28T01:33:07.744Z,9.418164
2023-04-28T01:34:07.622Z,9.418175
2023-04-28T01:35:07.621Z,9.418150
2023-04-28T01:36:07.635Z,9.418040
2023-04-28T01:37:07.639Z,9.418204
2023-04-28T01:38:07.607Z,9.418273
2023-04-28T01:39:08.588Z,9.418242
2023-04-28T01:40:07.590Z,9.418215
2023-04-28T01:41:07.578Z,9.418189
2023-04-28T01:42:07.602Z,9.418220
2023-04-28T01:43:07.580Z,9.418322
2023-04-28T01:44:07.587Z,9.418251
2023-04-28T01:45:07.545Z,9.418272
2023-04-28T01:46:08.580Z,9.418191
2023-04-28T01:47:07.543Z,9.418157
2023-04-28T01:48:07.545Z,9.418192
2023-04-28T01:49:07.547Z,9.418273
2023-04-28T01:50:07.522Z,9.418248
2023-04-28T01:51:07.509Z,9.418287
2023-04-28T01:52:07.536Z,9.418199
2023-04-28T01:53:07.511Z,9.418298
2023-04-28T01:54:07.533Z,9.418218
2023-04-28T01:55:07.487Z,9.418144
2023-04-28T01:56:07.469Z,9.418136
2023-04-28T01:57:07.469Z,9.418119
2023-04-28T01:58:07.479Z,9.418199
2023-04-28T01:59:07.511Z,9.418149
2023-04-28T02:00:07.462Z,9.418133
2023-04-28T02:01:07.470Z,9.418144
2023-04-28T02:02:07.437Z,9.418205
2023-04-28T02:03:07.464Z,9.418215
2023-04-28T02:04:07.487Z,9.418156
2023-04-28T02:05:07.433Z,9.418100
2023-04-28T02:06:07.399Z,9.418093
2023-04-28T02:07:07.405Z,9.418161
2023-04-28T02:08:07.396Z,9.418189
2023-04-28T02:09:07.386Z,9.418200
2023-04-28T02:10:07.413Z,9.418234
2023-04-28T02:11:07.378Z,9.418208
2023-04-28T02:12:07.378Z,9.418250
2023-04-28T02:13:07.357Z,9.418205
2023-04-28T02:14:07.351Z,9.418239
2023-04-28T02:15:07.366Z,9.418163
2023-04-28T02:16:08.393Z,9.418173
2023-04-28T02:17:07.338Z,9.418181
2023-04-28T02:18:07.372Z,9.418212
2023-04-28T02:19:07.310Z,9.418286
2023-04-28T02:20:07.330Z,9.418152
2023-04-28T02:21:07.326Z,9.418230
2023-04-28T02:22:07.315Z,9.418171
2023-04-28T02:23:07.286Z,9.418285
2023-04-28T02:24:07.275Z,9.418187
2023-04-28T02:25:07.269Z,9.418283
2023-04-28T02:26:07.263Z,9.418238
2023-04-28T02:27:07.282Z,9.418199
2023-04-28T02:28:07.250Z,9.418110
2023-04-28T02:29:07.241Z,9.418302
2023-04-28T02:30:07.262Z,9.418213
2023-04-28T02:31:07.330Z,9.418172
2023-04-28T02:32:07.238Z,9.418203
2023-04-28T02:33:07.281Z,9.418239
2023-04-28T02:34:07.207Z,9.418184
2023-04-28T02:35:07.235Z,9.418196
2023-04-28T02:36:07.201Z,9.418163
2023-04-28T02:37:07.200Z,9.418192
2023-04-28T02:38:07.196Z,9.418204
2023-04-28T02:39:07.182Z,9.418076
2023-04-28T02:40:07.171Z,9.417989
2023-04-28T02:41:07.163Z,9.418097
2023-04-28T02:42:07.158Z,9.418191
2023-04-28T02:43:07.235Z,9.418172
2023-04-28T02:44:07.165Z,9.418267
2023-04-28T02:45:07.141Z,9.418275
2023-04-28T02:46:07.130Z,9.418239
2023-04-28T02:47:07.416Z,9.418297
2023-04-28T02:48:07.151Z,9.418309
2023-04-28T02:49:07.130Z,9.418238
2023-04-28T02:50:07.116Z,9.418201
2023-04-28T02:51:07.130Z,9.418211
2023-04-28T02:52:07.087Z,9.418284
2023-04-28T02:53:07.176Z,9.418242
2023-04-28T02:54:07.121Z,9.418231
2023-04-28T02:55:07.066Z,9.418301
2023-04-28T02:56:07.070Z,9.418221
2023-04-28T02:57:07.054Z,9.418298
2023-04-28T02:58:07.045Z,9.418312
2023-04-28T02:59:07.045Z,9.418316
2023-04-28T03:00:07.031Z,9.418270
2023-04-28T03:01:07.052Z,9.418293
2023-04-28T03:02:07.058Z,9.418320
2023-04-28T03:03:07.150Z,9.418247
2023-04-28T03:04:07.309Z,9.418253
2023-04-28T03:05:07.001Z,9.418257
2023-04-28T03:06:06.995Z,9.418255
2023-04-28T03:07:07.010Z,9.418171
2023-04-28T03:08:06.985Z,9.418243
2023-04-28T03:09:06.984Z,9.418326
2023-04-28T03:10:06.958Z,9.418257
2023-04-28T03:11:06.967Z,9.418245
2023-04-28T03:12:06.955Z,9.418218
2023-04-28T03:13:06.975Z,9.418207
2023-04-28T03:14:06.933Z,9.418221
2023-04-28T03:15:07.934Z,9.418193
2023-04-28T03:16:06.972Z,9.418180
2023-04-28T03:17:06.918Z,9.418230
2023-04-28T03:18:06.960Z,9.418222
2023-04-28T03:19:06.901Z,9.418215
2023-04-28T03:20:06.905Z,9.418188
2023-04-28T03:21:06.933Z,9.418202
2023-04-28T03:22:06.901Z,9.418301
2023-04-28T03:23:06.882Z,9.418322
2023-04-28T03:24:06.884Z,9.418360
2023-04-28T03:25:06.862Z,9.418466
2023-04-28T03:26:06.873Z,9.418367
2023-04-28T03:27:06.851Z,9.418275
2023-04-28T03:28:06.848Z,9.418328
2023-04-28T03:29:06.859Z,9.418304
2023-04-28T03:30:06.846Z,9.418386
2023-04-28T03:31:06.840Z,9.418313
2023-04-28T03:32:06.879Z,9.418325
2023-04-28T03:33:06.867Z,9.418344
2023-04-28T03:34:06.800Z,9.418403
2023-04-28T03:35:06.796Z,9.418300
2023-04-28T03:36:06.789Z,9.418345
2023-04-28T03:37:06.785Z,9.418377
2023-04-28T03:38:06.786Z,9.418427
2023-04-28T03:39:06.769Z,9.418304
2023-04-28T03:40:06.761Z,9.418348
2023-04-28T03:41:06.766Z,9.418332
2023-04-28T03:42:06.762Z,9.418203
2023-04-28T03:43:06.756Z,9.418307
2023-04-28T03:44:06.744Z,9.418324
2023-04-28T03:45:06.730Z,9.418205
2023-04-28T03:46:06.750Z,9.418180
2023-04-28T03:47:06.732Z,9.418165
2023-04-28T03:48:06.715Z,9.418230
2023-04-28T03:49:06.736Z,9.418350
2023-04-28T03:50:06.704Z,9.418387
2023-04-28T03:51:06.687Z,9.418417
2023-04-28T03:52:07.687Z,9.418289
2023-04-28T03:53:06.670Z,9.418248
2023-04-28T03:54:06.698Z,9.418257
2023-04-28T03:55:06.673Z,9.418298
2023-04-28T03:56:06.667Z,9.418335
2023-04-28T03:57:06.651Z,9.418330
2023-04-28T03:58:06.661Z,9.418296
2023-04-28T03:59:06.626Z,9.418250
2023-04-28T04:00:06.625Z,9.418264
2023-04-28T04:01:06.608Z,9.418200
2023-04-28T04:02:06.659Z,9.418258
2023-04-28T04:03:06.800Z,9.418258
2023-04-28T04:04:06.737Z,9.418174
2023-04-28T04:05:06.880Z,9.418278
2023-04-28T04:06:06.582Z,9.418287
2023-04-28T04:07:06.574Z,9.418229
2023-04-28T04:08:06.566Z,9.418233
2023-04-28T04:09:06.566Z,9.418248
2023-04-28T04:10:06.554Z,9.418259
2023-04-28T04:11:06.567Z,9.418264
2023-04-28T04:12:06.544Z,9.418283
2023-04-28T04:13:06.526Z,9.418208
2023-04-28T04:14:06.539Z,9.418246
2023-04-28T04:15:06.518Z,9.418261
2023-04-28T04:16:06.603Z,9.418205
2023-04-28T04:17:06.509Z,9.418210
2023-04-28T04:18:06.554Z,9.418287
2023-04-28T04:19:06.500Z,9.418272
2023-04-28T04:20:06.486Z,9.418281
2023-04-28T04:21:06.491Z,9.418250
2023-04-28T04:22:06.476Z,9.418273
2023-04-28T04:23:06.481Z,9.418271
2023-04-28T04:24:06.462Z,9.418253
2023-04-28T04:25:06.483Z,9.418326
2023-04-28T04:26:06.446Z,9.418268
2023-04-28T04:27:06.454Z,9.418254
2023-04-28T04:28:06.448Z,9.418221
2023-04-28T04:29:06.430Z,9.418213
2023-04-28T04:30:06.421Z,9.418206
2023-04-28T04:31:06.430Z,9.418262
2023-04-28T04:32:06.405Z,9.418250
2023-04-28T04:33:06.452Z,9.418278
2023-04-28T04:34:06.376Z,9.418226
2023-04-28T04:35:06.423Z,9.418349
2023-04-28T04:36:06.380Z,9.418241
2023-04-28T04:37:06.468Z,9.418294
2023-04-28T04:38:06.373Z,9.418324
2023-04-28T04:39:06.356Z,9.418295
2023-04-28T04:40:06.383Z,9.418320
2023-04-28T04:41:06.350Z,9.418286
2023-04-28T04:42:22.706Z,9.418301
2023-04-28T04:43:08.340Z,9.418246
2023-04-28T04:44:06.328Z,9.418261
2023-04-28T04:45:06.313Z,9.418204
2023-04-28T04:46:06.354Z,9.418246
2023-04-28T04:47:06.312Z,9.418314
2023-04-28T04:48:06.346Z,9.418276
2023-04-28T04:49:06.313Z,9.418275
2023-04-28T04:50:06.292Z,9.418310
2023-04-28T04:51:06.273Z,9.418243
2023-04-28T04:52:06.311Z,9.418207
2023-04-28T04:53:06.788Z,9.418297
2023-04-28T04:54:06.250Z,9.418234
2023-04-28T04:55:06.251Z,9.418289
2023-04-28T04:56:06.236Z,9.418372
2023-04-28T04:57:06.236Z,9.418352
2023-04-28T04:58:06.239Z,9.418311
2023-04-28T04:59:06.235Z,9.418306
2023-04-28T05:00:06.207Z,9.418253
2023-04-28T05:01:06.216Z,9.418155
2023-04-28T05:02:06.238Z,9.418268
2023-04-28T05:03:06.357Z,9.418339
2023-04-28T05:04:06.333Z,9.418330
2023-04-28T05:05:19.645Z,9.418325
2023-04-28T05:06:08.190Z,9.418302
2023-04-28T05:07:06.175Z,9.418353
2023-04-28T05:08:06.168Z,9.418323
2023-04-28T05:09:06.158Z,9.418331
2023-04-28T05:10:06.158Z,9.418221
2023-04-28T05:11:06.146Z,9.418160
2023-04-28T05:12:06.139Z,9.418187
2023-04-28T05:13:07.054Z,9.418369
2023-04-28T05:14:06.132Z,9.418348
2023-04-28T05:15:06.119Z,9.418288
2023-04-28T05:16:06.176Z,9.418222
2023-04-28T05:17:06.106Z,9.418324
2023-04-28T05:18:06.169Z,9.418290
2023-04-28T05:19:06.099Z,9.418312
2023-04-28T05:20:06.122Z,9.418308
2023-04-28T05:21:06.088Z,9.418314
2023-04-28T05:22:06.153Z,9.418118
2023-04-28T05:23:06.088Z,9.418378
2023-04-28T05:24:06.093Z,9.418284
2023-04-28T05:25:06.101Z,9.418232
2023-04-28T05:26:06.056Z,9.418116
2023-04-28T05:27:06.044Z,9.418217
2023-04-28T05:28:06.037Z,9.418236
2023-04-28T05:29:06.056Z,9.418178
2023-04-28T05:30:06.080Z,9.418133
2023-04-28T05:31:06.017Z,9.418121
2023-04-28T05:32:06.034Z,9.418189
2023-04-28T05:33:06.105Z,9.418068
2023-04-28T05:34:05.999Z,9.418098
2023-04-28T05:35:05.988Z,9.418114
2023-04-28T05:36:06.004Z,9.418087
2023-04-28T05:37:05.972Z,9.418150
2023-04-28T05:38:05.972Z,9.418236
2023-04-28T05:39:05.977Z,9.418222
2023-04-28T05:40:05.949Z,9.418201
2023-04-28T05:41:05.974Z,9.418139
2023-04-28T05:42:05.933Z,9.418158
2023-04-28T05:43:05.937Z,9.418170
2023-04-28T05:44:05.923Z,9.418109
2023-04-28T05:45:05.924Z,9.418080
2023-04-28T05:46:12.029Z,9.418157
2023-04-28T05:47:07.900Z,9.418109
2023-04-28T05:48:05.934Z,9.418182
2023-04-28T05:49:05.884Z,9.418162
2023-04-28T05:50:05.884Z,9.418159
2023-04-28T05:51:05.904Z,9.418082
2023-04-28T05:52:05.869Z,9.418077
2023-04-28T05:53:05.868Z,9.418116
2023-04-28T05:54:05.849Z,9.418118
2023-04-28T05:55:06.003Z,9.418209
2023-04-28T05:56:05.838Z,9.418163
2023-04-28T05:57:05.837Z,9.418200
2023-04-28T05:58:05.833Z,9.418234
2023-04-28T05:59:05.817Z,9.418316
2023-04-28T06:00:05.820Z,9.418324
2023-04-28T06:01:05.832Z,9.418324
2023-04-28T06:02:05.856Z,9.418275
2023-04-28T06:03:05.933Z,9.418264
2023-04-28T06:04:06.188Z,9.418319
2023-04-28T06:05:05.874Z,9.418266
2023-04-28T06:06:09.763Z,9.418237
2023-04-28T06:07:06.808Z,9.418325
2023-04-28T06:08:05.766Z,9.418357
2023-04-28T06:09:05.756Z,9.418456
2023-04-28T06:10:05.749Z,9.418407
2023-04-28T06:11:05.778Z,9.418364
2023-04-28T06:12:05.723Z,9.418304
2023-04-28T06:13:06.737Z,9.418225
2023-04-28T06:14:05.721Z,9.418242
2023-04-28T06:15:05.726Z,9.418321
2023-04-28T06:16:05.733Z,9.418381
2023-04-28T06:17:05.738Z,9.418431
2023-04-28T06:18:05.730Z,9.418323
2023-04-28T06:19:05.693Z,9.418304
2023-04-28T06:20:05.686Z,9.418303
2023-04-28T06:21:05.670Z,9.418261
2023-04-28T06:22:05.682Z,9.418231
2023-04-28T06:23:05.704Z,9.418274
2023-04-28T06:24:05.672Z,9.418256
2023-04-28T06:25:05.662Z,9.418260
2023-04-28T06:26:05.683Z,9.418283
2023-04-28T06:27:05.635Z,9.418310
2023-04-28T06:28:05.690Z,9.418317
2023-04-28T06:29:05.621Z,9.418325
2023-04-28T06:30:05.622Z,9.418281
2023-04-28T06:31:05.636Z,9.418232
2023-04-28T06:32:05.604Z,9.418253
2023-04-28T06:33:05.637Z,9.418305
2023-04-28T06:34:05.614Z,9.418285
2023-04-28T06:35:05.592Z,9.418339
2023-04-28T06:36:05.588Z,9.418351
2023-04-28T06:37:05.573Z,9.418405
2023-04-28T06:38:05.556Z,9.418431
2023-04-28T06:39:05.577Z,9.418343
2023-04-28T06:40:05.559Z,9.418310
2023-04-28T06:41:05.565Z,9.418253
2023-04-28T06:42:05.534Z,9.418278
2023-04-28T06:43:05.557Z,9.418286
2023-04-28T06:44:05.554Z,9.418293
2023-04-28T06:45:05.562Z,9.418267
2023-04-28T06:46:05.513Z,9.418274
2023-04-28T06:47:05.520Z,9.418295
2023-04-28T06:48:05.574Z,9.418263
2023-04-28T06:49:05.490Z,9.418303
2023-04-28T06:50:06.518Z,9.418292
2023-04-28T06:51:05.491Z,9.418296
2023-04-28T06:52:05.483Z,9.418293
2023-04-28T06:53:05.507Z,9.418313
2023-04-28T06:54:05.463Z,9.418281
2023-04-28T06:55:05.460Z,9.418300
2023-04-28T06:56:05.465Z,9.418314
2023-04-28T06:57:05.457Z,9.418291
2023-04-28T06:58:05.455Z,9.418283
2023-04-28T06:59:05.420Z,9.418245
2023-04-28T07:00:05.434Z,9.418262
2023-04-28T07:01:05.450Z,9.418254
2023-04-28T07:02:05.506Z,9.418237
2023-04-28T07:03:05.489Z,9.418266
2023-04-28T07:04:05.601Z,9.418270
2023-04-28T07:05:05.399Z,9.418267
2023-04-28T07:06:05.393Z,9.418245
2023-04-28T07:07:05.369Z,9.418292
2023-04-28T07:08:05.370Z,9.418264
2023-04-28T07:09:05.366Z,9.418270
2023-04-28T07:10:05.390Z,9.418207
2023-04-28T07:11:05.351Z,9.418264
2023-04-28T07:12:05.340Z,9.418256
2023-04-28T07:13:05.355Z,9.418319
2023-04-28T07:14:05.339Z,9.418291
2023-04-28T07:15:05.381Z,9.418294
2023-04-28T07:16:05.366Z,9.418324
2023-04-28T07:17:05.317Z,9.418292
2023-04-28T07:18:05.398Z,9.418285
2023-04-28T07:19:05.310Z,9.418267
2023-04-28T07:20:05.319Z,9.418267
2023-04-28T07:21:05.759Z,9.418259
2023-04-28T07:22:06.282Z,9.418263
2023-04-28T07:23:05.295Z,9.418310
2023-04-28T07:24:05.267Z,9.418327
2023-04-28T07:25:05.255Z,9.418361
2023-04-28T07:26:05.413Z,9.418298
2023-04-28T07:27:05.266Z,9.418347
2023-04-28T07:28:05.238Z,9.418272
2023-04-28T07:29:05.292Z,9.418273
2023-04-28T07:30:15.216Z,9.418278
2023-04-28T07:31:07.218Z,9.418288
2023-04-28T07:32:06.814Z,9.418277
2023-04-28T07:33:06.263Z,9.418267
2023-04-28T07:34:05.259Z,9.418289
2023-04-28T07:35:05.212Z,9.418292
2023-04-28T07:36:05.182Z,9.418291
2023-04-28T07:37:05.182Z,9.418337
2023-04-28T07:38:05.183Z,9.418285
2023-04-28T07:39:05.249Z,9.418291
2023-04-28T07:40:05.153Z,9.418259
2023-04-28T07:41:06.736Z,9.418211
2023-04-28T07:42:05.138Z,9.418232
2023-04-28T07:43:05.149Z,9.418240
2023-04-28T07:44:05.134Z,9.418283
2023-04-28T07:45:05.133Z,9.418324
2023-04-28T07:46:05.226Z,9.418216
2023-04-28T07:47:05.143Z,9.418248
2023-04-28T07:48:05.199Z,9.418324
2023-04-28T07:49:05.114Z,9.418260
2023-04-28T07:50:05.095Z,9.418255
2023-04-28T07:51:05.076Z,9.418233
2023-04-28T07:52:05.095Z,9.418250
2023-04-28T07:53:05.086Z,9.418308
2023-04-28T07:54:05.081Z,9.418283
2023-04-28T07:55:05.056Z,9.418229
2023-04-28T07:56:05.042Z,9.418269
2023-04-28T07:57:05.076Z,9.418213
2023-04-28T07:58:05.037Z,9.418276
2023-04-28T07:59:05.037Z,9.418289
2023-04-28T08:00:06.050Z,9.418159
2023-04-28T08:01:05.016Z,9.418182
2023-04-28T08:02:05.111Z,9.418221
2023-04-28T08:03:05.163Z,9.418294
2023-04-28T08:04:05.292Z,9.418357
2023-04-28T08:05:05.200Z,9.418351
2023-04-28T08:06:05.070Z,9.418296
2023-04-28T08:07:04.972Z,9.418326
2023-04-28T08:08:04.969Z,9.418253
2023-04-28T08:09:04.965Z,9.418189
2023-04-28T08:10:04.979Z,9.418221
2023-04-28T08:11:04.974Z,9.418256
2023-04-28T08:12:04.943Z,9.418200
2023-04-28T08:13:04.927Z,9.418362
2023-04-28T08:14:05.928Z,9.418415
2023-04-28T08:15:04.962Z,9.418324
2023-04-28T08:16:05.005Z,9.418251
2023-04-28T08:17:04.955Z,9.418303
2023-04-28T08:18:04.977Z,9.418223
2023-04-28T08:19:04.957Z,9.418249
2023-04-28T08:20:04.913Z,9.418224
2023-04-28T08:21:04.884Z,9.418239
2023-04-28T08:22:04.892Z,9.418209
2023-04-28T08:23:04.864Z,9.418178
2023-04-28T08:24:04.873Z,9.418307
2023-04-28T08:25:04.858Z,9.418242
2023-04-28T08:26:04.860Z,9.418220
2023-04-28T08:27:04.852Z,9.418337
2023-04-28T08:28:04.858Z,9.418379
2023-04-28T08:29:04.847Z,9.418373
2023-04-28T08:30:04.839Z,9.418338
2023-04-28T08:31:04.849Z,9.418178
2023-04-28T08:32:04.826Z,9.418255
2023-04-28T08:33:06.218Z,9.418147
2023-04-28T08:34:04.824Z,9.418310
2023-04-28T08:35:04.801Z,9.418342
2023-04-28T08:36:04.799Z,9.418274
2023-04-28T08:37:04.780Z,9.418347
2023-04-28T08:38:04.778Z,9.418363
2023-04-28T08:39:04.781Z,9.418311
2023-04-28T08:40:04.763Z,9.418408
2023-04-28T08:41:04.780Z,9.418284
2023-04-28T08:42:04.758Z,9.418345
2023-04-28T08:43:04.816Z,9.418312
2023-04-28T08:44:04.742Z,9.418210
2023-04-28T08:45:04.748Z,9.418218
2023-04-28T08:46:04.830Z,9.418172
2023-04-28T08:47:04.728Z,9.418246
2023-04-28T08:48:04.733Z,9.418300
2023-04-28T08:49:04.711Z,9.418272
2023-04-28T08:50:04.710Z,9.418242
2023-04-28T08:51:04.693Z,9.418229
2023-04-28T08:52:04.697Z,9.418283
2023-04-28T08:53:04.698Z,9.418340
2023-04-28T08:54:22.880Z,9.418342
2023-04-28T08:55:06.717Z,9.418531
2023-04-28T08:56:04.688Z,9.418414
2023-04-28T08:57:04.699Z,9.418414
2023-04-28T08:58:04.668Z,9.418444
2023-04-28T08:59:04.662Z,9.418320
2023-04-28T09:00:04.689Z,9.418410
2023-04-28T09:01:04.651Z,9.418100
2023-04-28T09:02:04.713Z,9.418224
2023-04-28T09:03:04.735Z,9.418269
2023-04-28T09:04:04.732Z,9.418436
2023-04-28T09:05:04.910Z,9.418430
2023-04-28T09:06:04.613Z,9.418455
2023-04-28T09:07:04.632Z,9.418405
2023-04-28T09:08:04.624Z,9.418439
2023-04-28T09:09:04.609Z,9.418471
2023-04-28T09:10:04.589Z,9.418448
2023-04-28T09:11:04.591Z,9.418170
2023-04-28T09:12:04.588Z,9.418147
2023-04-28T09:13:04.576Z,9.418265
2023-04-28T09:14:04.560Z,9.418284
2023-04-28T09:15:04.546Z,9.418221
2023-04-28T09:16:04.575Z,9.418111
2023-04-28T09:17:04.552Z,9.418236
2023-04-28T09:18:04.587Z,9.418296
2023-04-28T09:19:04.525Z,9.418251
2023-04-28T09:20:04.524Z,9.418284
2023-04-28T09:21:04.547Z,9.418335
2023-04-28T09:22:17.554Z,9.418302
2023-04-28T09:23:06.601Z,9.418373
2023-04-28T09:24:04.514Z,9.418367
2023-04-28T09:25:04.498Z,9.418342
2023-04-28T09:26:04.507Z,9.418337
2023-04-28T09:27:04.491Z,9.418345
2023-04-28T09:28:04.472Z,9.418353
2023-04-28T09:29:04.478Z,9.418387
2023-04-28T09:30:04.459Z,9.418335
2023-04-28T09:31:04.463Z,9.418315
2023-04-28T09:32:04.500Z,9.418337
2023-04-28T09:33:04.464Z,9.418375
2023-04-28T09:34:04.470Z,9.418339
2023-04-28T09:35:04.441Z,9.418339
2023-04-28T09:36:04.434Z,9.418324
2023-04-28T09:37:04.477Z,9.418303
2023-04-28T09:38:04.410Z,9.418353
2023-04-28T09:39:04.441Z,9.418375
2023-04-28T09:40:04.408Z,9.418357
2023-04-28T09:41:04.392Z,9.418377
2023-04-28T09:42:04.514Z,9.418362
2023-04-28T09:43:18.787Z,9.418359
2023-04-28T09:44:06.430Z,9.418324
2023-04-28T09:45:04.368Z,9.418407
2023-04-28T09:46:04.401Z,9.418386
2023-04-28T09:47:04.376Z,9.418370
2023-04-28T09:48:04.501Z,9.418292
2023-04-28T09:49:04.350Z,9.418294
2023-04-28T09:50:04.384Z,9.418312
2023-04-28T09:51:04.336Z,9.418271
2023-04-28T09:52:04.340Z,9.418300
2023-04-28T09:53:04.334Z,9.418292
2023-04-28T09:54:04.367Z,9.418258
2023-04-28T09:55:04.550Z,9.418298
2023-04-28T09:56:04.323Z,9.418324
2023-04-28T09:57:04.717Z,9.418270
2023-04-28T09:58:04.295Z,9.418251
2023-04-28T09:59:04.311Z,9.418286
2023-04-28T10:00:04.309Z,9.418326
2023-04-28T10:01:04.293Z,9.418387
2023-04-28T10:02:12.890Z,9.418405
2023-04-28T10:03:06.339Z,9.418412
2023-04-28T10:04:04.370Z,9.418457
2023-04-28T10:05:04.506Z,9.418412
2023-04-28T10:06:04.279Z,9.418355
2023-04-28T10:07:04.255Z,9.418407
2023-04-28T10:08:04.241Z,9.418285
2023-04-28T10:09:04.230Z,9.418378
2023-04-28T10:10:04.255Z,9.418453
2023-04-28T10:11:04.231Z,9.418372
2023-04-28T10:12:04.208Z,9.418283
2023-04-28T10:13:04.207Z,9.418260
2023-04-28T10:14:04.199Z,9.418235
2023-04-28T10:15:04.188Z,9.418290
2023-04-28T10:16:04.216Z,9.418287
2023-04-28T10:17:04.205Z,9.418383
2023-04-28T10:18:04.237Z,9.418352
2023-04-28T10:19:04.181Z,9.418358
2023-04-28T10:20:05.241Z,9.418281
2023-04-28T10:21:04.169Z,9.418343
2023-04-28T10:22:04.160Z,9.418323
2023-04-28T10:23:04.144Z,9.418294
2023-04-28T10:24:04.143Z,9.418308
2023-04-28T10:25:04.151Z,9.418229
2023-04-28T10:26:04.113Z,9.418345
2023-04-28T10:27:04.141Z,9.418286
2023-04-28T10:28:04.108Z,9.418249
2023-04-28T10:29:04.114Z,9.418277
2023-04-28T10:30:08.344Z,9.418258
2023-04-28T10:31:05.150Z,9.418241
2023-04-28T10:32:04.104Z,9.418276
2023-04-28T10:33:04.231Z,9.418280
2023-04-28T10:34:04.064Z,9.418248
2023-04-28T10:35:04.074Z,9.418295
2023-04-28T10:36:04.070Z,9.418360
2023-04-28T10:37:04.083Z,9.418336
2023-04-28T10:38:04.050Z,9.418279
2023-04-28T10:39:04.042Z,9.418300
2023-04-28T10:40:04.594Z,9.418264
2023-04-28T10:41:04.020Z,9.418260
2023-04-28T10:42:04.047Z,9.418291
2023-04-28T10:43:04.075Z,9.418294
2023-04-28T10:44:04.014Z,9.418290
2023-04-28T10:45:04.020Z,9.418242
2023-04-28T10:46:04.066Z,9.418221
2023-04-28T10:47:03.985Z,9.418132
2023-04-28T10:48:04.017Z,9.418048
2023-04-28T10:49:03.979Z,9.418161
2023-04-28T10:50:03.975Z,9.418132
2023-04-28T10:51:04.198Z,9.418205
2023-04-28T10:52:03.971Z,9.418234
2023-04-28T10:53:03.966Z,9.418297
2023-04-28T10:54:03.949Z,9.418307
2023-04-28T10:55:15.727Z,9.418330
2023-04-28T10:56:05.949Z,9.418268
2023-04-28T10:57:03.926Z,9.418212
2023-04-28T10:58:03.940Z,9.418131
2023-04-28T10:59:03.945Z,9.418131
2023-04-28T11:00:03.900Z,9.418040
2023-04-28T11:01:03.934Z,9.418130
2023-04-28T11:02:03.985Z,9.418180
2023-04-28T11:03:03.968Z,9.418128
2023-04-28T11:04:04.526Z,9.418291
2023-04-28T11:05:03.932Z,9.418256
2023-04-28T11:06:03.866Z,9.418255
2023-04-28T11:07:03.878Z,9.418264
2023-04-28T11:08:03.862Z,9.418196
2023-04-28T11:09:03.903Z,9.418236
2023-04-28T11:10:03.841Z,9.418290
2023-04-28T11:11:03.838Z,9.418243
2023-04-28T11:12:03.829Z,9.418272
2023-04-28T11:13:03.829Z,9.418333
2023-04-28T11:14:03.840Z,9.418349
2023-04-28T11:15:03.821Z,9.418376
2023-04-28T11:16:03.907Z,9.418305
2023-04-28T11:17:03.806Z,9.418386
2023-04-28T11:18:03.805Z,9.418496
2023-04-28T11:19:03.815Z,9.418464
2023-04-28T11:20:03.795Z,9.418335
2023-04-28T11:21:03.770Z,9.418364
2023-04-28T11:22:03.765Z,9.418231
2023-04-28T11:23:03.769Z,9.418149
2023-04-28T11:24:03.750Z,9.418204
2023-04-28T11:25:03.735Z,9.418213
2023-04-28T11:26:03.736Z,9.418269
2023-04-28T11:27:03.759Z,9.418256
2023-04-28T11:28:03.716Z,9.418496
2023-04-28T11:29:03.718Z,9.418447
2023-04-28T11:30:03.703Z,9.418335
2023-04-28T11:31:03.699Z,9.418344
2023-04-28T11:32:04.141Z,9.418300
2023-04-28T11:33:03.709Z,9.418308
2023-04-28T11:34:03.707Z,9.418320
2023-04-28T11:35:03.690Z,9.418333
2023-04-28T11:36:03.686Z,9.418262
2023-04-28T11:37:03.680Z,9.418202
2023-04-28T11:38:03.665Z,9.418352
2023-04-28T11:39:03.654Z,9.418312
2023-04-28T11:40:03.659Z,9.418175
2023-04-28T11:41:03.651Z,9.418262
2023-04-28T11:42:03.637Z,9.418314
2023-04-28T11:43:03.710Z,9.418281
2023-04-28T11:44:03.644Z,9.418359